Hawaii METAR Reports

 

PHOG - Kahului, Hawaii, USA
Distance from station: WNW 8mi, 13km
Updated: Sat, 23-Feb-2019 4:54am HST
Mist, Overcast
Mist, Overcast
 Wind from N
Wind: N 7 mph , 11 km/h
Temperature: 72°F , 22°C
Dew Point: 68°F , 20°C
Humidity: 88%
Barometer: 29.97 inHg , 1014.9 hPa
Summary: Mist
Clouds: Overcast
Visibility: 5 miles , 8 km
Cloud details: Few Clouds 700 ft
Mostly Cloudy 1200 ft
Overcast 2100 ft
2019/02/23 14:54 PHOG 231454Z 01006KT 5SM BR FEW007 BKN012 OVC021 22/20 A2997 RMK AO2 SLP153 P0001 60001 T02220200 51004
PHJH - Lahaina/West Mau, Hawaii, USA
Distance from station: WNW 24mi, 39km
Updated: Fri, 22-Feb-2019 5:50pm HST
NOT Current
Partly Cloudy
Partly Cloudy
 Wind from NNE
Wind: NNE 9 mph , 15 km/h, Gust: 16 mph , 26 km/h
Temperature: 73°F , 23°C
Dew Point: 68°F , 20°C
Humidity: 83%
Barometer: 29.95 inHg , 1014.2 hPa
Clouds: Partly Cloudy
Visibility: 15 miles , 24 km
Cloud details: Few Clouds 1500 ft
Partly Cloudy 8000 ft
2019/02/23 03:50 PHJH 230350Z 03008G14KT 15SM FEW015 SCT080 23/20 A2995 RMK LAST
 
PHNY - Lanai City Airpo, Hawaii, USA
Distance from station: W 40mi, 65km
Updated: Sat, 23-Feb-2019 4:56am HST

 Wind from NE
Wind: NE 6 mph , 9 km/h
Temperature: 66°F , 19°C
Dew Point: 66°F , 19°C
Humidity: 100%
Barometer: 30.01 inHg , 1016.3 hPa
Visibility: 10 miles , 16 km
2019/02/23 14:56 PHNY 231456Z AUTO 05005KT 10SM 19/19 A3001 RMK AO2 SLP145 6//// T01890189 56001
PHMK - Molokai, Hawaii, USA
Distance from station: WNW 55mi, 88km
Updated: Sat, 23-Feb-2019 4:54am HST
Partly Cloudy
Partly Cloudy
 Wind from N
Wind: N 8 mph , 13 km/h
Temperature: 72°F , 22°C
Dew Point: 68°F , 20°C
Humidity: 88%
Barometer: 29.98 inHg , 1015.2 hPa
Clouds: Partly Cloudy
Visibility: 10 miles , 16 km
Cloud details: Few Clouds 1000 ft
Partly Cloudy 2900 ft
2019/02/23 14:54 PHMK 231454Z AUTO 36007KT 10SM FEW010 SCT029 22/20 A2998 RMK AO2 SLP155 T02170200 55002 TSNO
 
PHKO - Kailua/Kona, Hawaii, USA
Distance from station: SSE 79mi, 128km
Updated: Sat, 23-Feb-2019 4:53am HST
Few Clouds
Few Clouds
 Wind from NE
Wind: NE 6 mph , 9 km/h
Temperature: 70°F , 21°C
Dew Point: 68°F , 20°C
Humidity: 94%
Barometer: 29.93 inHg , 1013.5 hPa
Clouds: Few Clouds
Visibility: 10 miles , 16 km
Cloud details: Few Clouds 4800 ft
2019/02/23 14:53 PHKO 231453Z AUTO 05005KT 10SM FEW048 21/20 A2993 RMK AO2 SLP136 T02110200 55006 TSNO
PHSF - Bradshaw Aaf/Haw, Hawaii, USA
Distance from station: SE 90mi, 145km
Updated: Sat, 23-Feb-2019 4:56am HST
Partly Cloudy
Partly Cloudy
 Wind from SE
Wind: SE 3 mph , 6 km/h
Temperature: 50°F , 10°C
Dew Point: 48°F , 9°C
Humidity: 94%
Barometer: 30.26 inHg , 1024.7 hPa
Clouds: Partly Cloudy
Visibility: 10 miles , 16 km
Cloud details: Partly Cloudy 19000 ft
2019/02/23 14:56 PHSF 231456Z AUTO 13003KT 10SM SCT190 10/09 A3026 RMK AO2 SLP141 WND DATA ESTMD T00950091 55008 PWINO $
 
PHNG - Kaneohe Mcas, Hawaii, USA
Distance from station: WNW 102mi, 164km
Updated: Sat, 23-Feb-2019 4:57am HST
Overcast
Overcast
 Wind from calm
Wind: Calm
Temperature: 70°F , 21°C
Dew Point: 66°F , 19°C
Humidity: 88%
Barometer: 29.95 inHg , 1014.2 hPa
Clouds: Overcast
Visibility: 10 miles , 16 km
Cloud details: Overcast 1900 ft
2019/02/23 14:57 PHNG 231457Z 00000KT 10SM OVC019 21/19 A2995 RMK AO2 SLP137 60000 T02110189 55003 $
PHNL - Honolulu, Hawaii, USA
Distance from station: WNW 108mi, 174km
Updated: Sat, 23-Feb-2019 4:53am HST
Few Clouds
Few Clouds
 Wind from calm
Wind: Calm
Temperature: 66°F , 19°C
Dew Point: 63°F , 17°C
Humidity: 88%
Barometer: 29.97 inHg , 1014.9 hPa
Clouds: Few Clouds
Visibility: 10 miles , 16 km
Cloud details: Few Clouds 2300 ft
2019/02/23 14:53 PHNL 231453Z 00000KT 10SM FEW023 19/17 A2997 RMK AO2 SLP147 T01890167 55001
 
PHTO - Hilo, Hawaii, USA
Distance from station: SE 114mi, 183km
Updated: Sat, 23-Feb-2019 4:53am HST
Overcast
Overcast
 Wind from WSW
Wind: WSW 3 mph , 6 km/h
Temperature: 72°F , 22°C
Dew Point: 66°F , 19°C
Humidity: 83%
Barometer: 29.95 inHg , 1014.2 hPa
Clouds: Overcast
Visibility: 10 miles , 16 km
Cloud details: Few Clouds 1500 ft
Mostly Cloudy 2400 ft
Overcast 4500 ft
2019/02/23 14:53 PHTO 231453Z AUTO 25003KT 10SM FEW015 BKN024 OVC045 22/19 A2995 RMK AO2 SLP139 T02170194 53001 TSNO
PHJR - Kalaeloa, Hawaii, USA
Distance from station: WNW 117mi, 189km
Updated: Sat, 23-Feb-2019 4:53am HST
Clear
Clear
 Wind from NE
Wind: NE 5 mph , 7 km/h
Temperature: 63°F , 17°C
Dew Point: 57°F , 14°C
Humidity: 83%
Barometer: 29.98 inHg , 1015.2 hPa
Clouds: Clear
Visibility: 10 miles , 16 km
2019/02/23 14:53 PHJR 231453Z AUTO 04004KT 10SM CLR 17/14 A2998 RMK AO2 SLP158 T01670139 58001 TSNO
 
PHHI - Wheeler Afb/Oahu, Hawaii, USA
Distance from station: WNW 120mi, 193km
Updated: Sat, 23-Feb-2019 4:56am HST
Clear
Clear
 Wind from NW
Wind: NW 6 mph , 9 km/h
Temperature: 61°F , 16°C
Dew Point: 61°F , 16°C
Humidity: 100%
Barometer: 29.97 inHg , 1014.9 hPa
Clouds: Clear
Visibility: 10 miles , 16 km
2019/02/23 14:56 PHHI 231456Z AUTO 32005KT 10SM CLR 16/16 A2997 RMK AO2 SLP141 T01640161 55002 $
PHLI - Lihue/Kauai Is, Hawaii, USA
Distance from station: WNW 209mi, 336km
Updated: Sat, 23-Feb-2019 4:53am HST
Partly Cloudy
Partly Cloudy
 Wind from W
Wind: W 8 mph , 13 km/h
Temperature: 64°F , 18°C
Dew Point: 57°F , 14°C
Humidity: 78%
Barometer: 29.99 inHg , 1015.6 hPa
Clouds: Partly Cloudy
Visibility: 10 miles , 16 km
Cloud details: Partly Cloudy 2200 ft
2019/02/23 14:53 PHLI 231453Z AUTO 27007KT 10SM SCT022 18/14 A2999 RMK AO2 SLP154 T01830144 56004 TSNO
 
PHBK - Barking Sands/Ka, Hawaii, USA
Distance from station: WNW 237mi, 382km
Updated: Sat, 23-Feb-2019 4:56am HST
Clear
Clear
 Wind from ENE
Wind: ENE 5 mph , 7 km/h
Temperature: 64°F , 18°C
Dew Point: 59°F , 15°C
Humidity: 83%
Barometer: 29.98 inHg , 1015.2 hPa
Clouds: Clear
Visibility: 10 miles , 16 km
2019/02/23 14:56 PHBK 231456Z AUTO 06004KT 10SM CLR 18/15 A2998 RMK AO2 SLP153 T01780150 55004